Time;durP1;ratioP1;P1;durP2;ratioP2;P2;SDS_P1;SDS_P2;PMS_P1;PMS_P2;Temp;Humidity;BMP_temperature;BMP_pressure;BME280_temperature;BME280_humidity;BME280_pressure;Samples;Min_cycle;Max_cycle;Signal;HPM_P1;HPM_P2
2024/02/02 00:00:45;;;;;;;7.53;5.03;;;8.80;87.80;;;;;;5115208;28;20296;-72
2024/02/02 00:03:12;;;;;;;7.75;5.00;;;8.70;87.90;;;;;;5115573;28;20223;-72
2024/02/02 00:05:39;;;;;;;6.93;5.25;;;8.70;88.10;;;;;;5115640;28;20265;-72
2024/02/02 00:08:10;;;;;;;6.18;5.13;;;8.70;88.20;;;;;;5115552;28;20224;-72
2024/02/02 00:10:37;;;;;;;7.55;5.28;;;8.70;87.80;;;;;;5114951;28;20239;-72
2024/02/02 00:13:04;;;;;;;6.68;4.35;;;8.70;87.50;;;;;;5115362;28;20267;-73
2024/02/02 00:15:31;;;;;;;5.88;5.03;;;8.70;87.30;;;;;;5115186;28;20336;-72
2024/02/02 00:17:58;;;;;;;9.23;5.82;;;8.60;87.50;;;;;;5114960;28;20259;-72
2024/02/02 00:20:25;;;;;;;8.65;5.40;;;8.60;87.80;;;;;;5115189;28;20195;-72
2024/02/02 00:22:52;;;;;;;7.43;4.57;;;8.60;88.10;;;;;;5115107;28;20193;-72
2024/02/02 00:25:21;;;;;;;7.80;5.18;;;8.60;88.10;;;;;;5115023;28;20580;-72
2024/02/02 00:27:48;;;;;;;7.40;4.30;;;8.60;88.10;;;;;;5114858;28;20630;-72
2024/02/02 00:30:15;;;;;;;5.70;4.32;;;8.50;88.10;;;;;;5114632;28;20208;-72
2024/02/02 00:32:46;;;;;;;6.88;5.10;;;8.50;88.40;;;;;;5114682;28;20237;-72
2024/02/02 00:35:14;;;;;;;5.15;3.90;;;8.50;88.30;;;;;;5114995;28;20173;-72
2024/02/02 00:37:44;;;;;;;6.90;5.22;;;8.50;88.30;;;;;;5114948;28;20594;-72
2024/02/02 00:40:12;;;;;;;5.85;4.57;;;8.40;88.10;;;;;;5114998;28;20180;-72
2024/02/02 00:42:42;;;;;;;7.55;5.53;;;8.40;88.30;;;;;;5114768;28;20530;-72
2024/02/02 00:45:09;;;;;;;7.25;5.20;;;8.40;88.50;;;;;;5113926;28;20523;-72
2024/02/02 00:47:36;;;;;;;7.80;5.13;;;8.40;88.70;;;;;;5114386;28;20189;-72
2024/02/02 00:50:05;;;;;;;7.30;5.35;;;8.40;88.70;;;;;;5114231;28;20204;-72
2024/02/02 00:52:32;;;;;;;7.45;5.00;;;8.40;89.20;;;;;;5114582;28;20217;-72
2024/02/02 00:55:00;;;;;;;6.45;5.53;;;8.50;89.40;;;;;;5114258;28;20185;-72
2024/02/02 00:57:30;;;;;;;7.40;5.25;;;8.40;89.40;;;;;;5114218;28;20230;-72
2024/02/02 00:59:58;;;;;;;7.78;5.95;;;8.50;89.60;;;;;;5114861;28;20185;-72
2024/02/02 01:02:25;;;;;;;5.68;4.40;;;8.50;89.70;;;;;;5114570;28;20184;-72
2024/02/02 01:04:52;;;;;;;9.68;6.43;;;8.50;89.60;;;;;;5114366;28;20188;-72
2024/02/02 01:07:19;;;;;;;7.45;4.90;;;8.50;89.40;;;;;;5113986;28;20185;-72
2024/02/02 01:09:49;;;;;;;8.43;5.88;;;8.50;89.30;;;;;;5114285;28;20205;-73
2024/02/02 01:12:16;;;;;;;7.18;5.40;;;8.50;89.20;;;;;;5114412;28;20173;-72
2024/02/02 01:14:43;;;;;;;6.13;4.50;;;8.50;89.00;;;;;;5114236;28;20216;-72
2024/02/02 01:17:12;;;;;;;8.98;6.32;;;8.50;89.00;;;;;;5113929;28;20271;-72
2024/02/02 01:19:39;;;;;;;8.13;5.47;;;8.50;89.10;;;;;;5114227;28;20252;-72
2024/02/02 01:22:06;;;;;;;8.45;6.70;;;8.40;88.90;;;;;;5113922;28;20193;-72
2024/02/02 01:24:33;;;;;;;8.13;5.53;;;8.50;88.90;;;;;;5113790;28;20249;-72
2024/02/02 01:27:00;;;;;;;10.55;6.50;;;8.50;88.50;;;;;;5113715;28;20230;-72
2024/02/02 01:29:27;;;;;;;8.15;5.35;;;8.40;88.40;;;;;;5113873;28;20538;-72
2024/02/02 01:31:54;;;;;;;9.50;5.60;;;8.40;88.60;;;;;;5114021;28;20576;-72
2024/02/02 01:34:25;;;;;;;8.82;5.68;;;8.40;89.00;;;;;;5113992;28;20184;-72
2024/02/02 01:36:52;;;;;;;8.48;5.97;;;8.40;89.30;;;;;;5113993;28;20230;-72
2024/02/02 01:39:19;;;;;;;10.13;7.50;;;8.40;89.40;;;;;;5113941;28;20223;-72
2024/02/02 01:41:46;;;;;;;8.15;5.88;;;8.40;89.60;;;;;;5113876;28;20238;-72
2024/02/02 01:44:13;;;;;;;9.50;7.00;;;8.40;89.70;;;;;;5113885;28;20185;-72
2024/02/02 01:46:40;;;;;;;10.05;7.07;;;8.40;90.00;;;;;;5113935;28;20180;-71
2024/02/02 01:49:07;;;;;;;9.02;7.57;;;8.40;90.00;;;;;;5113583;28;20226;-72
2024/02/02 01:51:35;;;;;;;10.77;8.00;;;8.40;89.90;;;;;;5113460;28;20258;-72
2024/02/02 01:54:03;;;;;;;10.18;7.90;;;8.40;90.00;;;;;;5113754;28;20193;-72
2024/02/02 01:56:30;;;;;;;8.88;6.65;;;8.40;90.00;;;;;;5115707;28;20188;-72
2024/02/02 01:58:57;;;;;;;8.85;7.47;;;8.40;90.00;;;;;;5117622;28;20635;-72
2024/02/02 02:01:24;;;;;;;7.90;6.55;;;8.50;90.00;;;;;;5117872;28;20249;-72
2024/02/02 02:03:51;;;;;;;12.07;7.03;;;8.50;90.00;;;;;;5117928;28;20193;-72
2024/02/02 02:06:18;;;;;;;6.90;5.68;;;8.50;89.90;;;;;;5117770;28;20181;-72
2024/02/02 02:08:47;;;;;;;9.68;6.78;;;8.60;89.70;;;;;;5117469;28;20639;-71
2024/02/02 02:11:14;;;;;;;8.85;7.30;;;8.60;89.40;;;;;;5117327;28;20296;-72
2024/02/02 02:13:41;;;;;;;7.60;5.65;;;8.50;89.20;;;;;;5117593;28;20238;-72
2024/02/02 02:16:09;;;;;;;10.30;6.85;;;8.50;89.20;;;;;;5117313;28;20184;-72
2024/02/02 02:18:36;;;;;;;8.93;7.00;;;8.50;89.40;;;;;;5117324;28;20304;-72
2024/02/02 02:21:22;;;;;;;8.05;6.10;;;8.50;89.40;;;;;;5117178;28;20192;-72
2024/02/02 02:23:49;;;;;;;9.10;6.40;;;8.50;89.40;;;;;;5117080;28;20185;-72
2024/02/02 02:26:17;;;;;;;8.90;7.18;;;8.50;89.30;;;;;;5117194;28;20184;-72
2024/02/02 02:28:44;;;;;;;8.45;6.50;;;8.50;89.50;;;;;;5117384;28;20271;-72
2024/02/02 02:31:12;;;;;;;9.52;7.10;;;8.50;89.40;;;;;;5117020;28;20336;-72
2024/02/02 02:33:39;;;;;;;9.23;6.25;;;8.50;89.10;;;;;;5116984;28;20184;-72
2024/02/02 02:36:08;;;;;;;7.97;6.35;;;8.50;89.20;;;;;;5116908;28;20196;-72
2024/02/02 02:38:35;;;;;;;7.80;6.50;;;8.50;89.40;;;;;;5117237;28;20590;-72
2024/02/02 02:41:03;;;;;;;10.35;7.60;;;8.50;88.80;;;;;;5117177;28;20192;-72
2024/02/02 02:43:30;;;;;;;9.00;6.82;;;8.50;89.10;;;;;;5117162;28;20217;-72
2024/02/02 02:45:58;;;;;;;10.48;7.13;;;8.50;89.20;;;;;;5117107;28;20552;-72
2024/02/02 02:48:25;;;;;;;9.90;5.93;;;8.40;89.00;;;;;;5116667;28;20188;-72
2024/02/02 02:50:52;;;;;;;10.55;6.60;;;8.40;89.40;;;;;;5116892;28;20592;-72
2024/02/02 02:53:20;;;;;;;8.95;6.50;;;8.40;89.70;;;;;;5116516;28;20188;-72
2024/02/02 02:55:47;;;;;;;8.05;5.80;;;8.30;90.00;;;;;;5116537;28;20280;-72
2024/02/02 02:58:14;;;;;;;8.68;6.15;;;8.20;90.20;;;;;;5116602;28;20228;-72
2024/02/02 03:00:41;;;;;;;7.80;6.47;;;8.30;90.50;;;;;;5116803;28;20600;-72
2024/02/02 03:03:08;;;;;;;10.43;7.20;;;8.30;90.30;;;;;;5116722;28;20238;-72
2024/02/02 03:05:37;;;;;;;9.93;7.15;;;8.20;90.30;;;;;;5116748;28;20560;-71
2024/02/02 03:08:05;;;;;;;9.20;6.78;;;8.20;90.50;;;;;;5116088;28;20580;-72
2024/02/02 03:10:33;;;;;;;8.80;6.80;;;8.20;90.10;;;;;;5116795;28;20299;-72
2024/02/02 03:13:00;;;;;;;8.95;6.28;;;8.20;90.20;;;;;;5116308;28;20699;-72
2024/02/02 03:15:31;;;;;;;12.07;6.20;;;8.20;90.30;;;;;;5116441;28;20243;-72
2024/02/02 03:17:58;;;;;;;8.23;5.88;;;8.20;90.30;;;;;;5116305;28;20222;-72
2024/02/02 03:20:26;;;;;;;8.20;6.70;;;8.20;90.00;;;;;;5116619;28;20263;-72
2024/02/02 03:22:53;;;;;;;8.10;6.40;;;8.20;90.20;;;;;;5116494;28;20535;-72
2024/02/02 03:25:20;;;;;;;7.78;6.20;;;8.20;90.50;;;;;;5116310;28;20199;-72
2024/02/02 03:27:49;;;;;;;8.88;6.57;;;8.20;90.60;;;;;;5115598;28;20275;-72
2024/02/02 03:30:16;;;;;;;7.63;6.22;;;8.20;90.60;;;;;;5116266;28;20291;-72
2024/02/02 03:32:44;;;;;;;8.50;6.35;;;8.20;90.30;;;;;;5116249;28;20271;-72
2024/02/02 03:35:11;;;;;;;10.35;6.38;;;8.20;90.40;;;;;;5116110;28;20203;-72
2024/02/02 03:37:38;;;;;;;8.45;5.80;;;8.30;90.30;;;;;;5115758;28;20185;-72
2024/02/02 03:40:05;;;;;;;8.45;5.80;;;8.30;90.30;;;;;;5116011;28;20223;-72
2024/02/02 03:42:32;;;;;;;8.95;6.60;;;8.30;90.50;;;;;;5115662;28;20189;-72
2024/02/02 03:45:01;;;;;;;8.32;6.43;;;8.30;90.50;;;;;;5116075;28;20276;-72
2024/02/02 03:47:28;;;;;;;8.13;6.47;;;8.40;90.50;;;;;;5115544;28;20528;-72
2024/02/02 03:49:55;;;;;;;8.15;6.13;;;8.40;90.40;;;;;;5115556;28;20279;-72
2024/02/02 03:52:23;;;;;;;8.35;6.32;;;8.40;90.30;;;;;;5115468;28;20718;-72
2024/02/02 03:54:50;;;;;;;8.63;5.85;;;8.40;89.70;;;;;;5115322;28;20189;-72
2024/02/02 03:57:17;;;;;;;7.65;5.75;;;8.40;89.90;;;;;;5115349;28;20213;-72
2024/02/02 03:59:44;;;;;;;7.03;5.25;;;8.40;89.00;;;;;;5115642;28;20591;-72
2024/02/02 04:02:13;;;;;;;7.90;5.53;;;8.40;89.40;;;;;;5115763;28;20275;-72
2024/02/02 04:04:40;;;;;;;8.38;6.30;;;8.30;89.70;;;;;;5115189;28;20188;-72
2024/02/02 04:07:07;;;;;;;7.35;5.35;;;8.30;90.00;;;;;;5115519;28;20224;-72
2024/02/02 04:09:34;;;;;;;8.07;5.78;;;8.40;90.20;;;;;;5115120;28;20189;-72
2024/02/02 04:12:01;;;;;;;9.15;5.88;;;8.40;90.20;;;;;;5115243;28;20304;-72
2024/02/02 04:14:31;;;;;;;7.90;6.22;;;8.40;90.20;;;;;;5115375;28;20586;-72
2024/02/02 04:16:57;;;;;;;5.97;4.65;;;8.40;90.20;;;;;;5114940;28;20638;-72
2024/02/02 04:19:26;;;;;;;7.20;6.00;;;8.40;90.20;;;;;;5114565;28;20299;-72
2024/02/02 04:21:53;;;;;;;8.00;6.10;;;8.40;90.00;;;;;;5115202;28;20235;-72
2024/02/02 04:24:20;;;;;;;8.07;6.03;;;8.40;89.80;;;;;;5114939;28;20271;-72
2024/02/02 04:26:47;;;;;;;6.80;4.90;;;8.40;89.80;;;;;;5115124;28;20289;-72
2024/02/02 04:29:14;;;;;;;8.05;5.30;;;8.40;89.80;;;;;;5115250;28;20598;-72
2024/02/02 04:31:41;;;;;;;7.80;5.75;;;8.40;89.70;;;;;;5114577;28;20295;-72
2024/02/02 04:34:08;;;;;;;8.55;6.80;;;8.40;89.60;;;;;;5114948;28;20574;-72
2024/02/02 04:36:36;;;;;;;7.80;5.63;;;8.50;89.30;;;;;;5114962;28;20272;-72
2024/02/02 04:39:04;;;;;;;9.30;5.75;;;8.40;89.00;;;;;;5114582;28;20271;-72
2024/02/02 04:41:31;;;;;;;9.05;5.85;;;8.40;88.90;;;;;;5114484;28;20193;-73
2024/02/02 04:43:58;;;;;;;8.05;6.70;;;8.40;88.70;;;;;;5114478;28;20185;-71
2024/02/02 04:46:25;;;;;;;8.77;6.00;;;8.40;88.60;;;;;;5114767;28;20272;-72
2024/02/02 04:48:52;;;;;;;8.10;5.53;;;8.40;88.50;;;;;;5114725;28;20578;-72
2024/02/02 04:51:19;;;;;;;8.02;5.97;;;8.40;88.60;;;;;;5114521;28;20297;-72
2024/02/02 04:53:47;;;;;;;9.70;7.20;;;8.40;88.60;;;;;;5114683;28;20234;-72
2024/02/02 04:56:14;;;;;;;8.57;6.35;;;8.40;88.40;;;;;;5114565;28;20227;-72
2024/02/02 04:58:41;;;;;;;8.52;6.05;;;8.40;88.30;;;;;;5114520;28;20276;-72
2024/02/02 05:01:08;;;;;;;9.10;6.50;;;8.30;88.30;;;;;;5114270;28;20279;-73
2024/02/02 05:03:35;;;;;;;8.73;6.88;;;8.30;88.10;;;;;;5114482;28;20271;-73
2024/02/02 05:06:02;;;;;;;10.55;7.18;;;8.30;87.90;;;;;;5114421;28;20279;-72
2024/02/02 05:08:29;;;;;;;9.43;6.53;;;8.30;88.10;;;;;;5114395;28;20279;-72
2024/02/02 05:10:57;;;;;;;7.50;6.13;;;8.30;87.80;;;;;;5113909;28;20753;-72
2024/02/02 05:13:29;;;;;;;7.80;5.93;;;8.30;87.90;;;;;;5114449;28;20260;-73
2024/02/02 05:15:56;;;;;;;9.85;7.10;;;8.30;87.70;;;;;;5113984;28;20173;-72
2024/02/02 05:18:23;;;;;;;6.93;5.97;;;8.20;87.50;;;;;;5113808;28;20216;-72
2024/02/02 05:20:50;;;;;;;9.75;6.90;;;8.20;87.60;;;;;;5114203;28;20225;-72
2024/02/02 05:23:19;;;;;;;11.43;7.57;;;8.20;87.80;;;;;;5113821;28;20272;-72
2024/02/02 05:25:45;;;;;;;8.77;7.05;;;8.20;87.90;;;;;;5114209;28;20264;-72
2024/02/02 05:28:14;;;;;;;8.25;5.93;;;8.20;88.10;;;;;;5113857;28;20275;-72
2024/02/02 05:30:41;;;;;;;9.40;6.38;;;8.20;87.90;;;;;;5113595;28;20276;-74
2024/02/02 05:33:10;;;;;;;9.10;5.75;;;8.20;87.70;;;;;;5113845;28;20220;-72
2024/02/02 05:35:36;;;;;;;8.85;6.45;;;8.20;87.70;;;;;;5114010;28;20216;-72
2024/02/02 05:38:03;;;;;;;9.82;6.25;;;8.20;87.90;;;;;;5114014;28;20241;-72
2024/02/02 05:40:30;;;;;;;7.95;5.93;;;8.20;87.70;;;;;;5113726;28;20704;-72
2024/02/02 05:42:57;;;;;;;8.30;6.10;;;8.20;87.70;;;;;;5113758;28;20702;-72
2024/02/02 05:45:26;;;;;;;7.70;6.18;;;8.20;88.00;;;;;;5114105;28;20607;-72
2024/02/02 05:47:53;;;;;;;10.93;5.70;;;8.20;87.90;;;;;;5099007;28;20181;-72
2024/02/02 05:50:20;;;;;;;8.80;6.50;;;8.20;87.90;;;;;;5092359;28;20500;-72
2024/02/02 05:52:48;;;;;;;8.77;5.97;;;8.20;87.80;;;;;;5092805;28;20216;-72
2024/02/02 05:55:15;;;;;;;7.65;6.03;;;8.20;87.60;;;;;;5091360;28;20236;-72
2024/02/02 05:57:43;;;;;;;9.82;6.65;;;8.20;87.50;;;;;;5092282;28;20185;-72
2024/02/02 06:00:11;;;;;;;12.75;8.48;;;8.20;87.30;;;;;;5091443;28;20504;-72
2024/02/02 06:02:40;;;;;;;12.25;7.75;;;8.20;87.20;;;;;;5089447;28;20187;-72
2024/02/02 06:05:07;;;;;;;15.65;8.77;;;8.20;86.90;;;;;;5091830;28;20256;-72
2024/02/02 06:07:38;;;;;;;8.88;7.15;;;8.20;86.70;;;;;;5092717;28;20181;-72
2024/02/02 06:10:06;;;;;;;8.32;5.93;;;8.20;86.60;;;;;;5092063;28;20230;-72
2024/02/02 06:12:36;;;;;;;9.50;6.22;;;8.20;86.50;;;;;;5092295;28;20270;-72
2024/02/02 06:15:04;;;;;;;8.88;6.50;;;8.20;86.90;;;;;;5092590;28;20177;-72
2024/02/02 06:17:31;;;;;;;8.40;5.75;;;8.20;86.20;;;;;;5091514;28;20254;-72
2024/02/02 06:19:59;;;;;;;8.27;6.47;;;8.30;86.30;;;;;;5092238;28;20207;-71
2024/02/02 06:22:26;;;;;;;8.30;6.72;;;8.30;86.30;;;;;;5092279;28;20220;-72
2024/02/02 06:24:53;;;;;;;7.30;5.57;;;8.30;86.30;;;;;;5091875;28;20272;-72
2024/02/02 06:27:22;;;;;;;11.43;7.00;;;8.30;86.20;;;;;;5091677;28;20178;-72
2024/02/02 06:29:50;;;;;;;7.78;6.25;;;8.40;86.00;;;;;;5092129;28;20591;-72
2024/02/02 06:32:20;;;;;;;8.82;6.65;;;8.40;85.90;;;;;;5090850;28;20237;-73
2024/02/02 06:34:48;;;;;;;10.85;8.15;;;8.40;85.80;;;;;;5092182;28;20174;-72
2024/02/02 06:37:19;;;;;;;8.18;6.00;;;8.40;85.60;;;;;;5092460;28;20196;-72
2024/02/02 06:39:47;;;;;;;8.75;6.40;;;8.40;85.50;;;;;;5092045;28;20282;-72
2024/02/02 06:42:15;;;;;;;8.85;5.78;;;8.40;85.20;;;;;;5093620;28;20535;-72
2024/02/02 06:44:42;;;;;;;7.65;5.65;;;8.30;84.90;;;;;;5096116;28;20260;-72
2024/02/02 06:47:09;;;;;;;7.45;5.70;;;8.40;85.10;;;;;;5094987;28;20261;-72
2024/02/02 06:49:36;;;;;;;8.98;6.07;;;8.40;85.10;;;;;;5095783;28;20221;-72
2024/02/02 06:52:03;;;;;;;7.35;5.82;;;8.40;85.00;;;;;;5095195;28;20296;-72
2024/02/02 06:54:32;;;;;;;8.73;5.90;;;8.40;85.10;;;;;;5095066;28;20240;-72
2024/02/02 06:56:59;;;;;;;7.88;6.18;;;8.40;85.10;;;;;;5095485;28;20250;-72
2024/02/02 06:59:26;;;;;;;8.38;6.40;;;8.40;85.10;;;;;;5095667;28;20272;-72
2024/02/02 07:01:53;;;;;;;11.55;7.07;;;8.50;84.90;;;;;;5095457;28;20224;-73
2024/02/02 07:04:20;;;;;;;13.43;9.38;;;8.50;84.80;;;;;;5095833;28;20242;-73
2024/02/02 07:06:47;;;;;;;11.45;7.63;;;8.50;84.70;;;;;;5095701;28;20193;-72
2024/02/02 07:09:35;;;;;;;11.98;8.43;;;8.50;83.70;;;;;;5095201;28;20228;-72
2024/02/02 07:12:05;;;;;;;14.13;8.13;;;8.50;82.70;;;;;;5095514;28;20198;-71
2024/02/02 07:14:48;;;;;;;10.05;6.82;;;8.40;83.50;;;;;;5094841;28;20174;-72
2024/02/02 07:17:25;;;;;;;8.65;6.50;;;8.40;84.10;;;;;;5090043;28;20185;-72
2024/02/02 07:19:56;;;;;;;9.13;7.05;;;8.50;84.10;;;;;;5095120;28;20272;-72
2024/02/02 07:22:34;;;;;;;10.55;7.85;;;8.50;83.70;;;;;;5094732;28;20174;-72
2024/02/02 07:25:01;;;;;;;9.35;7.43;;;8.50;83.10;;;;;;5094318;28;20696;-73
2024/02/02 07:27:53;;;;;;;8.10;5.13;;;8.50;83.20;;;;;;5094908;28;20276;-72
2024/02/02 07:30:51;;;;;;;9.70;6.95;;;8.50;82.80;;;;;;5094979;28;20209;-72
2024/02/02 07:33:33;;;;;;;9.95;7.10;;;8.40;84.00;;;;;;5094916;28;20213;-72
2024/02/02 07:36:02;;;;;;;8.70;6.90;;;8.40;84.00;;;;;;5095161;28;20209;-72
2024/02/02 07:38:51;;;;;;;8.93;7.25;;;8.40;84.20;;;;;;5095033;28;20232;-72
2024/02/02 07:41:24;;;;;;;10.50;7.28;;;8.50;84.30;;;;;;5095062;28;20280;-72
2024/02/02 07:44:02;;;;;;;8.52;6.53;;;8.40;84.10;;;;;;5095039;28;20581;-72
2024/02/02 07:46:29;;;;;;;8.73;7.13;;;8.40;84.50;;;;;;5094981;28;20173;-72
2024/02/02 07:49:00;;;;;;;7.55;6.15;;;8.40;84.50;;;;;;5094827;28;20186;-72
2024/02/02 07:51:28;;;;;;;12.93;6.32;;;8.40;85.00;;;;;;5094577;28;20190;-72
2024/02/02 07:53:55;;;;;;;8.10;5.88;;;8.40;84.60;;;;;;5093318;28;20769;-72
2024/02/02 07:56:24;;;;;;;10.00;6.57;;;8.40;84.40;;;;;;5094701;28;20200;-73
2024/02/02 07:58:52;;;;;;;7.53;5.50;;;8.50;84.20;;;;;;5094443;28;20277;-72
2024/02/02 08:01:19;;;;;;;7.97;5.57;;;8.50;84.40;;;;;;5094607;28;20190;-72
2024/02/02 08:03:48;;;;;;;9.07;6.75;;;8.50;84.30;;;;;;5094605;28;20246;-72
2024/02/02 08:06:14;;;;;;;6.63;5.32;;;8.60;84.70;;;;;;5094165;28;20228;-73
2024/02/02 08:08:42;;;;;;;6.17;5.00;;;8.70;83.60;;;;;;5094469;28;20295;-72
2024/02/02 08:11:09;;;;;;;9.88;5.18;;;8.70;83.50;;;;;;5094361;28;20523;-72
2024/02/02 08:13:38;;;;;;;10.63;8.00;;;8.70;84.00;;;;;;5094071;28;20252;-72
2024/02/02 08:16:08;;;;;;;9.95;6.05;;;8.70;83.70;;;;;;5094254;28;20282;-73
2024/02/02 08:18:40;;;;;;;10.43;6.53;;;8.70;83.90;;;;;;5093618;28;20283;-71
2024/02/02 08:21:07;;;;;;;8.98;6.43;;;8.70;83.90;;;;;;5094255;28;20188;-72
2024/02/02 08:23:39;;;;;;;8.48;5.85;;;8.70;83.60;;;;;;5093940;28;20292;-72
2024/02/02 08:26:11;;;;;;;9.05;6.45;;;8.70;84.20;;;;;;5094122;28;20210;-73
2024/02/02 08:28:39;;;;;;;12.77;8.25;;;8.80;84.30;;;;;;5094168;28;20220;-72
2024/02/02 08:31:10;;;;;;;8.50;5.85;;;8.80;84.40;;;;;;5094039;28;20235;-72
2024/02/02 08:33:40;;;;;;;7.50;4.93;;;8.80;84.50;;;;;;5093995;28;20201;-72
2024/02/02 08:36:09;;;;;;;7.22;4.75;;;8.80;84.00;;;;;;5093680;28;20190;-73
2024/02/02 08:38:37;;;;;;;6.00;4.13;;;8.90;83.30;;;;;;5093734;28;20505;-72
2024/02/02 08:41:04;;;;;;;6.15;5.00;;;8.90;81.60;;;;;;5093788;28;20532;-73
2024/02/02 08:43:52;;;;;;;6.45;4.28;;;8.90;81.30;;;;;;5093768;28;20201;-72
2024/02/02 08:46:22;;;;;;;6.50;4.43;;;9.00;81.50;;;;;;5093761;28;20239;-73
2024/02/02 08:48:51;;;;;;;5.00;3.80;;;9.00;81.60;;;;;;5093822;28;20177;-73
2024/02/02 08:51:53;;;;;;;8.30;3.70;;;9.00;81.30;;;;;;5093484;28;20185;-73
2024/02/02 08:54:36;;;;;;;9.90;6.15;;;9.10;81.20;;;;;;5093330;28;20212;-72
2024/02/02 08:57:32;;;;;;;5.65;4.05;;;9.10;81.10;;;;;;5093273;28;20223;-73
2024/02/02 09:00:11;;;;;;;5.68;3.95;;;9.20;81.10;;;;;;5087337;28;20269;-72
2024/02/02 09:03:25;;;;;;;5.60;3.92;;;9.20;81.40;;;;;;5093564;28;20598;-73
2024/02/02 09:05:54;;;;;;;4.93;3.60;;;9.30;80.50;;;;;;5092703;28;20174;-72
2024/02/02 09:08:42;;;;;;;5.60;3.70;;;9.30;80.40;;;;;;5093071;28;20217;-73
2024/02/02 09:11:22;;;;;;;7.07;3.60;;;9.30;80.50;;;;;;5084336;28;20272;-72
2024/02/02 09:13:59;;;;;;;6.22;3.42;;;9.30;81.80;;;;;;5093290;28;20207;-73
2024/02/02 09:16:43;;;;;;;4.68;3.35;;;9.40;81.00;;;;;;5093292;28;20235;-73
2024/02/02 09:19:28;;;;;;;5.72;3.30;;;9.40;80.90;;;;;;5092599;28;20667;-73
2024/02/02 09:21:57;;;;;;;5.18;3.40;;;9.40;80.90;;;;;;5092859;28;20612;-72
2024/02/02 09:24:49;;;;;;;6.88;3.85;;;9.40;80.70;;;;;;5093193;28;20531;-72
2024/02/02 09:27:31;;;;;;;4.35;3.15;;;9.50;81.00;;;;;;5088069;28;20555;-73
2024/02/02 09:29:59;;;;;;;4.50;2.80;;;9.60;81.00;;;;;;5093111;28;20177;-72
2024/02/02 09:32:27;;;;;;;5.88;3.33;;;9.60;80.80;;;;;;5092598;28;20304;-73
2024/02/02 09:35:02;;;;;;;4.25;2.55;;;9.70;80.40;;;;;;5092999;28;20224;-73
2024/02/02 09:37:41;;;;;;;4.05;2.33;;;9.70;78.80;;;;;;5092712;28;20239;-73
2024/02/02 09:40:43;;;;;;;3.90;2.38;;;9.80;78.80;;;;;;5093081;28;20288;-73
2024/02/02 09:43:22;;;;;;;4.38;2.10;;;9.80;78.20;;;;;;5092621;28;20658;-73
2024/02/02 09:46:00;;;;;;;2.95;1.83;;;9.90;77.70;;;;;;5092664;28;20267;-73
2024/02/02 09:48:45;;;;;;;3.97;2.58;;;9.90;77.10;;;;;;5092552;28;20615;-73
2024/02/02 09:51:22;;;;;;;4.60;2.30;;;9.90;76.40;;;;;;5092954;28;20615;-73
2024/02/02 09:54:10;;;;;;;3.85;1.80;;;9.90;76.20;;;;;;5092890;28;20193;-72
2024/02/02 09:56:51;;;;;;;3.45;2.25;;;10.00;74.80;;;;;;5082643;28;20189;-73
2024/02/02 09:59:28;;;;;;;3.22;1.88;;;10.00;73.60;;;;;;5092815;28;20517;-72
2024/02/02 10:02:13;;;;;;;3.00;2.05;;;10.00;72.80;;;;;;5092844;28;20222;-73
2024/02/02 10:04:53;;;;;;;3.47;2.33;;;10.00;73.00;;;;;;5092604;28;20256;-72
2024/02/02 10:07:32;;;;;;;3.22;2.15;;;10.00;73.50;;;;;;5092727;28;20173;-72
2024/02/02 10:10:22;;;;;;;3.63;2.25;;;10.00;73.70;;;;;;5092432;28;20205;-72
2024/02/02 10:13:02;;;;;;;4.15;2.30;;;10.00;73.30;;;;;;5092729;28;20205;-73
2024/02/02 10:15:50;;;;;;;3.80;2.33;;;10.10;73.40;;;;;;5092384;28;20181;-72
2024/02/02 10:18:43;;;;;;;3.15;2.00;;;10.10;72.50;;;;;;5085422;28;20244;-73
2024/02/02 10:21:19;;;;;;;3.47;2.17;;;10.10;71.80;;;;;;5096688;28;20265;-73
2024/02/02 10:24:20;;;;;;;4.07;2.35;;;10.10;71.80;;;;;;5096219;28;20243;-73
2024/02/02 10:27:14;;;;;;;4.35;2.20;;;10.20;72.10;;;;;;5096415;28;20193;-73
2024/02/02 10:30:05;;;;;;;3.90;1.80;;;10.20;72.30;;;;;;5096143;28;20186;-73
2024/02/02 10:32:52;;;;;;;3.28;2.00;;;10.20;72.30;;;;;;5096016;28;20282;-73
2024/02/02 10:35:34;;;;;;;3.47;1.98;;;10.30;72.90;;;;;;5096334;28;20265;-73
2024/02/02 10:38:17;;;;;;;3.58;1.88;;;10.30;72.90;;;;;;5095737;28;20615;-72
2024/02/02 10:40:57;;;;;;;3.10;1.95;;;10.40;73.20;;;;;;5096341;28;20201;-73
2024/02/02 10:43:50;;;;;;;5.47;2.10;;;10.40;72.00;;;;;;5096218;28;20268;-73
2024/02/02 10:46:27;;;;;;;2.90;2.33;;;10.40;71.50;;;;;;5095234;28;20588;-73
2024/02/02 10:49:10;;;;;;;2.97;1.60;;;10.50;71.20;;;;;;5096114;28;20205;-72
2024/02/02 10:51:44;;;;;;;3.35;1.95;;;10.50;70.70;;;;;;5096072;28;20260;-73
2024/02/02 10:54:25;;;;;;;3.28;1.90;;;10.50;69.60;;;;;;5095658;28;20208;-73
2024/02/02 10:57:10;;;;;;;3.13;2.25;;;10.50;69.70;;;;;;5095997;28;20217;-72
2024/02/02 10:59:50;;;;;;;3.75;2.20;;;10.50;70.00;;;;;;5095864;28;20177;-72
2024/02/02 11:02:28;;;;;;;2.70;1.70;;;10.50;70.80;;;;;;5095732;28;20277;-72
2024/02/02 11:05:07;;;;;;;3.58;1.88;;;10.50;71.20;;;;;;5095521;28;20206;-73
2024/02/02 11:07:40;;;;;;;4.47;2.42;;;10.50;71.10;;;;;;5095331;28;20260;-72
2024/02/02 11:10:11;;;;;;;4.15;2.38;;;10.60;71.40;;;;;;5095735;28;20178;-73
2024/02/02 11:12:47;;;;;;;4.53;2.70;;;10.60;71.00;;;;;;5095564;28;20583;-72
2024/02/02 11:15:31;;;;;;;4.55;2.10;;;10.50;70.50;;;;;;5095299;28;20215;-72
2024/02/02 11:18:19;;;;;;;3.58;2.08;;;10.50;68.00;;;;;;5095218;28;20248;-73
2024/02/02 11:21:00;;;;;;;2.70;1.50;;;10.50;66.20;;;;;;5095275;28;20268;-72
2024/02/02 11:23:35;;;;;;;2.72;1.33;;;10.40;65.20;;;;;;5095225;28;20650;-72
2024/02/02 11:26:08;;;;;;;3.35;1.30;;;10.30;65.60;;;;;;5095286;28;20242;-72
2024/02/02 11:28:47;;;;;;;2.90;1.50;;;10.20;66.20;;;;;;5094922;28;20208;-72
2024/02/02 11:31:25;;;;;;;2.55;1.20;;;10.20;66.40;;;;;;5095276;28;20268;-73
2024/02/02 11:34:05;;;;;;;2.60;1.20;;;10.20;65.70;;;;;;5093608;28;20553;-72
2024/02/02 11:36:44;;;;;;;4.82;1.33;;;10.20;65.20;;;;;;5095128;28;20178;-73
2024/02/02 11:39:32;;;;;;;2.10;1.20;;;10.10;65.00;;;;;;5094623;28;20177;-72
2024/02/02 11:42:00;;;;;;;2.60;1.20;;;10.00;65.40;;;;;;5094683;28;20178;-72
2024/02/02 11:44:30;;;;;;;2.83;1.25;;;10.00;66.70;;;;;;5094915;28;20276;-72
2024/02/02 11:46:59;;;;;;;2.17;1.27;;;10.00;66.90;;;;;;5094884;28;20244;-72
2024/02/02 11:49:31;;;;;;;2.00;0.90;;;10.10;66.30;;;;;;5094920;28;20371;-73
2024/02/02 11:52:04;;;;;;;2.50;1.10;;;10.00;66.20;;;;;;5093037;28;20177;-72
2024/02/02 11:54:36;;;;;;;3.00;1.38;;;10.00;65.40;;;;;;5094815;28;20254;-73
2024/02/02 11:57:06;;;;;;;3.58;1.60;;;10.00;65.70;;;;;;5094644;28;20200;-72
2024/02/02 11:59:39;;;;;;;3.95;1.35;;;10.00;65.80;;;;;;5094114;28;20189;-73
2024/02/02 12:02:24;;;;;;;2.70;1.50;;;10.10;65.20;;;;;;5094296;28;20217;-72
2024/02/02 12:04:57;;;;;;;2.00;1.13;;;10.10;64.70;;;;;;5094325;28;20635;-72
2024/02/02 12:07:35;;;;;;;2.58;1.02;;;10.00;65.10;;;;;;5094192;28;20209;-72
2024/02/02 12:10:08;;;;;;;2.53;1.50;;;10.00;65.20;;;;;;5094204;28;20217;-73
2024/02/02 12:12:44;;;;;;;4.32;1.60;;;10.00;66.30;;;;;;5094477;28;20195;-72
2024/02/02 12:15:16;;;;;;;2.83;1.65;;;10.00;66.40;;;;;;5094211;28;20184;-72
2024/02/02 12:17:44;;;;;;;2.08;1.00;;;10.00;67.10;;;;;;5094013;28;20316;-72
2024/02/02 12:20:17;;;;;;;2.40;1.10;;;10.00;67.20;;;;;;5093923;28;20192;-72
2024/02/02 12:22:44;;;;;;;2.17;1.35;;;10.10;65.90;;;;;;5093891;28;20179;-72
2024/02/02 12:25:13;;;;;;;2.20;0.82;;;10.00;65.80;;;;;;5094140;28;20213;-72
2024/02/02 12:27:42;;;;;;;2.50;1.35;;;10.10;64.90;;;;;;5093829;28;20185;-72
2024/02/02 12:30:12;;;;;;;4.05;1.98;;;10.10;64.70;;;;;;5093720;28;20234;-72
2024/02/02 12:32:39;;;;;;;3.40;1.80;;;10.00;65.90;;;;;;5094014;28;20180;-72
2024/02/02 12:35:07;;;;;;;10.10;2.60;;;10.00;66.60;;;;;;5093642;28;20665;-71
2024/02/02 12:37:45;;;;;;;9.20;3.22;;;10.10;67.10;;;;;;5093609;28;20924;-72
2024/02/02 12:40:13;;;;;;;4.78;1.90;;;10.10;66.70;;;;;;5092900;28;20177;-72
2024/02/02 12:42:40;;;;;;;3.47;1.80;;;10.10;66.00;;;;;;5093642;28;20192;-74
2024/02/02 12:45:13;;;;;;;4.93;3.03;;;10.10;65.90;;;;;;5093848;28;20213;-72
2024/02/02 12:47:41;;;;;;;10.27;3.40;;;10.10;66.00;;;;;;5093837;28;20264;-72
2024/02/02 12:50:14;;;;;;;9.07;2.50;;;10.10;66.30;;;;;;5093743;28;20195;-71
2024/02/02 12:52:46;;;;;;;5.53;2.10;;;10.20;66.60;;;;;;5093311;28;20174;-72
2024/02/02 12:55:14;;;;;;;2.92;1.20;;;10.20;66.40;;;;;;5093376;28;20615;-72
2024/02/02 12:57:41;;;;;;;2.33;1.30;;;10.20;66.50;;;;;;5093081;28;20227;-72
2024/02/02 13:00:13;;;;;;;2.70;1.40;;;10.20;65.60;;;;;;5093276;28;20207;-72
2024/02/02 13:02:43;;;;;;;3.08;2.00;;;10.30;66.00;;;;;;5093505;28;20177;-73
2024/02/02 13:05:12;;;;;;;5.95;1.50;;;10.30;65.50;;;;;;5093229;28;20189;-72
2024/02/02 13:07:40;;;;;;;2.92;1.15;;;10.30;66.10;;;;;;5093295;28;20280;-72
2024/02/02 13:10:10;;;;;;;5.70;1.92;;;10.40;65.70;;;;;;5093255;28;20180;-72
2024/02/02 13:12:45;;;;;;;5.10;1.75;;;10.40;65.60;;;;;;5092620;28;20615;-72
2024/02/02 13:15:13;;;;;;;2.60;1.15;;;10.40;65.60;;;;;;5092933;28;20173;-72